sensor_id;sensor_type;location;lat;lon;timestamp;P1;durP1;ratioP1;P2;durP2;ratioP2
9722;SDS011;4900;49.306;8.500;2023-05-07T00:01:02;3.72;;;3.33;;
9722;SDS011;4900;49.306;8.500;2023-05-07T00:03:28;3.15;;;2.83;;
9722;SDS011;4900;49.306;8.500;2023-05-07T00:05:53;4.07;;;3.47;;
9722;SDS011;4900;49.306;8.500;2023-05-07T00:08:19;4.10;;;3.60;;
9722;SDS011;4900;49.306;8.500;2023-05-07T00:10:45;3.35;;;3.05;;
9722;SDS011;4900;49.306;8.500;2023-05-07T00:13:11;3.33;;;3.03;;
9722;SDS011;4900;49.306;8.500;2023-05-07T00:15:37;2.95;;;2.65;;
9722;SDS011;4900;49.306;8.500;2023-05-07T00:18:02;3.60;;;2.80;;
9722;SDS011;4900;49.306;8.500;2023-05-07T00:20:28;3.00;;;2.45;;
9722;SDS011;4900;49.306;8.500;2023-05-07T00:22:53;2.97;;;2.60;;
9722;SDS011;4900;49.306;8.500;2023-05-07T00:25:19;4.18;;;2.55;;
9722;SDS011;4900;49.306;8.500;2023-05-07T00:27:44;3.08;;;2.78;;
9722;SDS011;4900;49.306;8.500;2023-05-07T00:30:10;4.32;;;3.20;;
9722;SDS011;4900;49.306;8.500;2023-05-07T00:32:36;3.13;;;2.83;;
9722;SDS011;4900;49.306;8.500;2023-05-07T00:35:03;3.20;;;2.90;;
9722;SDS011;4900;49.306;8.500;2023-05-07T00:37:29;2.90;;;2.70;;
9722;SDS011;4900;49.306;8.500;2023-05-07T00:39:55;3.65;;;3.22;;
9722;SDS011;4900;49.306;8.500;2023-05-07T00:42:20;3.10;;;2.70;;
9722;SDS011;4900;49.306;8.500;2023-05-07T00:44:46;3.25;;;2.92;;
9722;SDS011;4900;49.306;8.500;2023-05-07T00:47:11;3.10;;;2.80;;
9722;SDS011;4900;49.306;8.500;2023-05-07T00:49:38;3.45;;;3.15;;
9722;SDS011;4900;49.306;8.500;2023-05-07T00:52:06;3.47;;;3.17;;
9722;SDS011;4900;49.306;8.500;2023-05-07T00:54:34;3.30;;;3.00;;
9722;SDS011;4900;49.306;8.500;2023-05-07T00:57:01;3.63;;;3.30;;
9722;SDS011;4900;49.306;8.500;2023-05-07T00:59:28;3.30;;;3.00;;
9722;SDS011;4900;49.306;8.500;2023-05-07T01:01:53;3.50;;;3.20;;
9722;SDS011;4900;49.306;8.500;2023-05-07T01:04:19;3.28;;;2.85;;
9722;SDS011;4900;49.306;8.500;2023-05-07T01:06:44;3.85;;;3.45;;
9722;SDS011;4900;49.306;8.500;2023-05-07T01:09:10;3.13;;;2.80;;
9722;SDS011;4900;49.306;8.500;2023-05-07T01:11:36;3.55;;;3.05;;
9722;SDS011;4900;49.306;8.500;2023-05-07T01:14:02;3.72;;;3.30;;
9722;SDS011;4900;49.306;8.500;2023-05-07T01:16:28;4.53;;;3.60;;
9722;SDS011;4900;49.306;8.500;2023-05-07T01:18:54;4.10;;;3.70;;
9722;SDS011;4900;49.306;8.500;2023-05-07T01:21:21;4.10;;;3.70;;
9722;SDS011;4900;49.306;8.500;2023-05-07T01:23:51;3.47;;;3.17;;
9722;SDS011;4900;49.306;8.500;2023-05-07T01:26:17;3.45;;;3.15;;
9722;SDS011;4900;49.306;8.500;2023-05-07T01:28:44;4.78;;;3.78;;
9722;SDS011;4900;49.306;8.500;2023-05-07T01:31:10;4.00;;;3.60;;
9722;SDS011;4900;49.306;8.500;2023-05-07T01:33:37;4.13;;;3.58;;
9722;SDS011;4900;49.306;8.500;2023-05-07T01:36:05;3.60;;;3.20;;
9722;SDS011;4900;49.306;8.500;2023-05-07T01:38:33;4.78;;;3.72;;
9722;SDS011;4900;49.306;8.500;2023-05-07T01:41:00;4.35;;;3.90;;
9722;SDS011;4900;49.306;8.500;2023-05-07T01:43:26;4.28;;;3.88;;
9722;SDS011;4900;49.306;8.500;2023-05-07T01:45:53;4.82;;;4.38;;
9722;SDS011;4900;49.306;8.500;2023-05-07T01:48:19;4.82;;;4.32;;
9722;SDS011;4900;49.306;8.500;2023-05-07T01:50:45;5.78;;;4.95;;
9722;SDS011;4900;49.306;8.500;2023-05-07T01:53:12;4.97;;;4.20;;
9722;SDS011;4900;49.306;8.500;2023-05-07T01:55:37;4.80;;;4.22;;
9722;SDS011;4900;49.306;8.500;2023-05-07T01:58:03;4.60;;;3.90;;
9722;SDS011;4900;49.306;8.500;2023-05-07T02:00:29;3.92;;;3.53;;
9722;SDS011;4900;49.306;8.500;2023-05-07T02:02:54;4.28;;;3.85;;
9722;SDS011;4900;49.306;8.500;2023-05-07T02:05:20;4.30;;;3.90;;
9722;SDS011;4900;49.306;8.500;2023-05-07T02:07:46;4.47;;;4.07;;
9722;SDS011;4900;49.306;8.500;2023-05-07T02:10:11;4.20;;;3.70;;
9722;SDS011;4900;49.306;8.500;2023-05-07T02:12:36;4.95;;;4.45;;
9722;SDS011;4900;49.306;8.500;2023-05-07T02:15:02;5.68;;;4.25;;
9722;SDS011;4900;49.306;8.500;2023-05-07T02:17:27;5.05;;;4.07;;
9722;SDS011;4900;49.306;8.500;2023-05-07T02:19:56;4.78;;;4.20;;
9722;SDS011;4900;49.306;8.500;2023-05-07T02:22:22;4.45;;;4.05;;
9722;SDS011;4900;49.306;8.500;2023-05-07T02:24:47;4.97;;;3.75;;
9722;SDS011;4900;49.306;8.500;2023-05-07T02:27:14;5.03;;;4.55;;
9722;SDS011;4900;49.306;8.500;2023-05-07T02:29:39;4.65;;;3.67;;
9722;SDS011;4900;49.306;8.500;2023-05-07T02:32:05;6.15;;;5.47;;
9722;SDS011;4900;49.306;8.500;2023-05-07T02:34:30;5.55;;;4.85;;
9722;SDS011;4900;49.306;8.500;2023-05-07T02:36:55;4.55;;;4.15;;
9722;SDS011;4900;49.306;8.500;2023-05-07T02:39:21;5.05;;;4.55;;
9722;SDS011;4900;49.306;8.500;2023-05-07T02:41:47;5.57;;;4.32;;
9722;SDS011;4900;49.306;8.500;2023-05-07T02:44:12;6.00;;;4.57;;
9722;SDS011;4900;49.306;8.500;2023-05-07T02:46:38;4.60;;;4.20;;
9722;SDS011;4900;49.306;8.500;2023-05-07T02:49:03;5.47;;;4.97;;
9722;SDS011;4900;49.306;8.500;2023-05-07T02:51:29;4.85;;;4.05;;
9722;SDS011;4900;49.306;8.500;2023-05-07T02:53:55;4.30;;;3.75;;
9722;SDS011;4900;49.306;8.500;2023-05-07T02:56:21;4.78;;;4.38;;
9722;SDS011;4900;49.306;8.500;2023-05-07T02:58:46;4.97;;;3.53;;
9722;SDS011;4900;49.306;8.500;2023-05-07T03:01:12;5.07;;;4.50;;
9722;SDS011;4900;49.306;8.500;2023-05-07T03:03:39;5.60;;;4.80;;
9722;SDS011;4900;49.306;8.500;2023-05-07T03:06:05;4.13;;;3.70;;
9722;SDS011;4900;49.306;8.500;2023-05-07T03:08:31;4.85;;;4.03;;
9722;SDS011;4900;49.306;8.500;2023-05-07T03:10:57;4.45;;;3.72;;
9722;SDS011;4900;49.306;8.500;2023-05-07T03:13:23;4.38;;;3.90;;
9722;SDS011;4900;49.306;8.500;2023-05-07T03:15:49;4.97;;;4.47;;
9722;SDS011;4900;49.306;8.500;2023-05-07T03:18:14;5.18;;;4.63;;
9722;SDS011;4900;49.306;8.500;2023-05-07T03:20:39;3.95;;;3.55;;
9722;SDS011;4900;49.306;8.500;2023-05-07T03:23:05;5.32;;;4.55;;
9722;SDS011;4900;49.306;8.500;2023-05-07T03:25:31;4.95;;;4.38;;
9722;SDS011;4900;49.306;8.500;2023-05-07T03:27:57;4.30;;;3.72;;
9722;SDS011;4900;49.306;8.500;2023-05-07T03:30:22;5.25;;;4.50;;
9722;SDS011;4900;49.306;8.500;2023-05-07T03:32:48;3.92;;;3.50;;
9722;SDS011;4900;49.306;8.500;2023-05-07T03:35:13;4.40;;;4.00;;
9722;SDS011;4900;49.306;8.500;2023-05-07T03:37:39;4.70;;;3.95;;
9722;SDS011;4900;49.306;8.500;2023-05-07T03:40:05;4.32;;;3.92;;
9722;SDS011;4900;49.306;8.500;2023-05-07T03:42:31;4.95;;;4.45;;
9722;SDS011;4900;49.306;8.500;2023-05-07T03:44:56;4.15;;;3.75;;
9722;SDS011;4900;49.306;8.500;2023-05-07T03:47:22;4.13;;;3.33;;
9722;SDS011;4900;49.306;8.500;2023-05-07T03:49:47;4.88;;;4.38;;
9722;SDS011;4900;49.306;8.500;2023-05-07T03:52:14;4.65;;;4.25;;
9722;SDS011;4900;49.306;8.500;2023-05-07T03:54:40;4.10;;;3.60;;
9722;SDS011;4900;49.306;8.500;2023-05-07T03:57:05;5.35;;;4.85;;
9722;SDS011;4900;49.306;8.500;2023-05-07T03:59:31;4.50;;;4.10;;
9722;SDS011;4900;49.306;8.500;2023-05-07T04:01:56;4.82;;;4.32;;
9722;SDS011;4900;49.306;8.500;2023-05-07T04:04:22;4.25;;;3.70;;
9722;SDS011;4900;49.306;8.500;2023-05-07T04:06:47;4.00;;;3.60;;
9722;SDS011;4900;49.306;8.500;2023-05-07T04:09:13;6.40;;;5.60;;
9722;SDS011;4900;49.306;8.500;2023-05-07T04:11:38;4.47;;;4.00;;
9722;SDS011;4900;49.306;8.500;2023-05-07T04:14:05;4.88;;;4.40;;
9722;SDS011;4900;49.306;8.500;2023-05-07T04:16:31;5.00;;;4.50;;
9722;SDS011;4900;49.306;8.500;2023-05-07T04:18:56;4.90;;;4.22;;
9722;SDS011;4900;49.306;8.500;2023-05-07T04:21:21;4.70;;;3.90;;
9722;SDS011;4900;49.306;8.500;2023-05-07T04:23:47;4.80;;;4.38;;
9722;SDS011;4900;49.306;8.500;2023-05-07T04:26:14;5.45;;;3.95;;
9722;SDS011;4900;49.306;8.500;2023-05-07T04:28:40;5.57;;;3.97;;
9722;SDS011;4900;49.306;8.500;2023-05-07T04:31:06;4.05;;;3.63;;
9722;SDS011;4900;49.306;8.500;2023-05-07T04:33:31;4.80;;;4.18;;
9722;SDS011;4900;49.306;8.500;2023-05-07T04:35:58;5.20;;;4.47;;
9722;SDS011;4900;49.306;8.500;2023-05-07T04:38:27;4.82;;;4.20;;
9722;SDS011;4900;49.306;8.500;2023-05-07T04:40:56;3.60;;;3.28;;
9722;SDS011;4900;49.306;8.500;2023-05-07T04:43:22;4.60;;;4.05;;
9722;SDS011;4900;49.306;8.500;2023-05-07T04:45:49;3.95;;;3.55;;
9722;SDS011;4900;49.306;8.500;2023-05-07T04:48:15;3.72;;;3.42;;
9722;SDS011;4900;49.306;8.500;2023-05-07T04:50:41;5.50;;;4.50;;
9722;SDS011;4900;49.306;8.500;2023-05-07T04:53:06;4.35;;;3.58;;
9722;SDS011;4900;49.306;8.500;2023-05-07T04:55:32;4.25;;;3.65;;
9722;SDS011;4900;49.306;8.500;2023-05-07T04:57:57;4.90;;;4.32;;
9722;SDS011;4900;49.306;8.500;2023-05-07T05:00:22;3.63;;;3.33;;
9722;SDS011;4900;49.306;8.500;2023-05-07T05:02:48;4.63;;;4.22;;
9722;SDS011;4900;49.306;8.500;2023-05-07T05:05:14;4.10;;;3.75;;
9722;SDS011;4900;49.306;8.500;2023-05-07T05:07:39;4.57;;;3.72;;
9722;SDS011;4900;49.306;8.500;2023-05-07T05:10:05;4.35;;;3.95;;
9722;SDS011;4900;49.306;8.500;2023-05-07T05:12:31;4.57;;;3.80;;
9722;SDS011;4900;49.306;8.500;2023-05-07T05:14:56;3.97;;;3.58;;
9722;SDS011;4900;49.306;8.500;2023-05-07T05:17:22;5.13;;;4.63;;
9722;SDS011;4900;49.306;8.500;2023-05-07T05:19:47;4.95;;;4.45;;
9722;SDS011;4900;49.306;8.500;2023-05-07T05:22:12;5.30;;;4.32;;
9722;SDS011;4900;49.306;8.500;2023-05-07T05:24:38;4.90;;;4.40;;
9722;SDS011;4900;49.306;8.500;2023-05-07T05:27:03;5.20;;;4.70;;
9722;SDS011;4900;49.306;8.500;2023-05-07T05:29:30;4.00;;;3.60;;
9722;SDS011;4900;49.306;8.500;2023-05-07T05:31:58;4.90;;;4.22;;
9722;SDS011;4900;49.306;8.500;2023-05-07T05:34:24;7.30;;;6.60;;
9722;SDS011;4900;49.306;8.500;2023-05-07T05:36:49;5.70;;;5.20;;
9722;SDS011;4900;49.306;8.500;2023-05-07T05:39:15;3.80;;;3.40;;
9722;SDS011;4900;49.306;8.500;2023-05-07T05:41:40;4.57;;;4.07;;
9722;SDS011;4900;49.306;8.500;2023-05-07T05:44:06;3.38;;;3.08;;
9722;SDS011;4900;49.306;8.500;2023-05-07T05:46:31;5.32;;;4.30;;
9722;SDS011;4900;49.306;8.500;2023-05-07T05:48:57;3.47;;;3.08;;
9722;SDS011;4900;49.306;8.500;2023-05-07T05:51:22;5.22;;;4.72;;
9722;SDS011;4900;49.306;8.500;2023-05-07T05:53:48;3.90;;;3.47;;
9722;SDS011;4900;49.306;8.500;2023-05-07T05:56:13;5.20;;;4.05;;
9722;SDS011;4900;49.306;8.500;2023-05-07T05:58:40;4.55;;;4.00;;
9722;SDS011;4900;49.306;8.500;2023-05-07T06:01:05;4.97;;;4.47;;
9722;SDS011;4900;49.306;8.500;2023-05-07T06:03:31;3.75;;;3.40;;
9722;SDS011;4900;49.306;8.500;2023-05-07T06:05:57;4.05;;;3.67;;
9722;SDS011;4900;49.306;8.500;2023-05-07T06:08:23;3.10;;;2.80;;
9722;SDS011;4900;49.306;8.500;2023-05-07T06:10:48;3.50;;;2.85;;
9722;SDS011;4900;49.306;8.500;2023-05-07T06:13:14;3.30;;;3.00;;
9722;SDS011;4900;49.306;8.500;2023-05-07T06:15:40;3.42;;;3.13;;
9722;SDS011;4900;49.306;8.500;2023-05-07T06:18:05;4.22;;;3.83;;
9722;SDS011;4900;49.306;8.500;2023-05-07T06:20:30;4.50;;;4.10;;
9722;SDS011;4900;49.306;8.500;2023-05-07T06:22:56;4.75;;;4.25;;
9722;SDS011;4900;49.306;8.500;2023-05-07T06:25:21;3.28;;;2.90;;
9722;SDS011;4900;49.306;8.500;2023-05-07T06:27:47;4.15;;;3.17;;
9722;SDS011;4900;49.306;8.500;2023-05-07T06:30:12;5.00;;;4.05;;
9722;SDS011;4900;49.306;8.500;2023-05-07T06:32:39;4.32;;;3.63;;
9722;SDS011;4900;49.306;8.500;2023-05-07T06:35:05;3.72;;;3.33;;
9722;SDS011;4900;49.306;8.500;2023-05-07T06:37:31;3.85;;;3.55;;
9722;SDS011;4900;49.306;8.500;2023-05-07T06:39:56;4.00;;;3.40;;
9722;SDS011;4900;49.306;8.500;2023-05-07T06:42:22;4.32;;;3.80;;
9722;SDS011;4900;49.306;8.500;2023-05-07T06:44:47;4.20;;;3.80;;
9722;SDS011;4900;49.306;8.500;2023-05-07T06:47:13;5.05;;;3.90;;
9722;SDS011;4900;49.306;8.500;2023-05-07T06:49:38;4.00;;;3.60;;
9722;SDS011;4900;49.306;8.500;2023-05-07T06:52:03;3.70;;;3.38;;
9722;SDS011;4900;49.306;8.500;2023-05-07T06:54:29;3.30;;;2.97;;
9722;SDS011;4900;49.306;8.500;2023-05-07T06:56:55;5.30;;;3.00;;
9722;SDS011;4900;49.306;8.500;2023-05-07T06:59:20;3.28;;;2.97;;
9722;SDS011;4900;49.306;8.500;2023-05-07T07:01:45;5.22;;;2.53;;
9722;SDS011;4900;49.306;8.500;2023-05-07T07:04:11;4.00;;;2.20;;
9722;SDS011;4900;49.306;8.500;2023-05-07T07:06:36;3.03;;;2.70;;
9722;SDS011;4900;49.306;8.500;2023-05-07T07:09:08;3.00;;;2.70;;
9722;SDS011;4900;49.306;8.500;2023-05-07T07:11:34;2.30;;;2.10;;
9722;SDS011;4900;49.306;8.500;2023-05-07T07:13:59;3.00;;;2.72;;
9722;SDS011;4900;49.306;8.500;2023-05-07T07:16:25;2.50;;;2.30;;
9722;SDS011;4900;49.306;8.500;2023-05-07T07:18:51;2.70;;;2.50;;
9722;SDS011;4900;49.306;8.500;2023-05-07T07:21:16;2.72;;;2.53;;
9722;SDS011;4900;49.306;8.500;2023-05-07T07:23:42;2.10;;;1.92;;
9722;SDS011;4900;49.306;8.500;2023-05-07T07:26:07;3.30;;;2.63;;
9722;SDS011;4900;49.306;8.500;2023-05-07T07:28:32;2.75;;;2.47;;
9722;SDS011;4900;49.306;8.500;2023-05-07T07:30:58;2.55;;;2.13;;
9722;SDS011;4900;49.306;8.500;2023-05-07T07:33:23;3.00;;;2.70;;
9722;SDS011;4900;49.306;8.500;2023-05-07T07:35:48;2.35;;;2.15;;
9722;SDS011;4900;49.306;8.500;2023-05-07T07:38:14;2.78;;;2.58;;
9722;SDS011;4900;49.306;8.500;2023-05-07T07:40:40;3.15;;;2.85;;
9722;SDS011;4900;49.306;8.500;2023-05-07T07:43:05;2.80;;;2.30;;
9722;SDS011;4900;49.306;8.500;2023-05-07T07:45:31;2.70;;;2.50;;
9722;SDS011;4900;49.306;8.500;2023-05-07T07:47:56;2.30;;;2.10;;
9722;SDS011;4900;49.306;8.500;2023-05-07T07:50:22;2.40;;;2.20;;
9722;SDS011;4900;49.306;8.500;2023-05-07T07:52:48;2.20;;;2.00;;
9722;SDS011;4900;49.306;8.500;2023-05-07T07:55:13;2.20;;;2.03;;
9722;SDS011;4900;49.306;8.500;2023-05-07T07:57:43;2.20;;;2.00;;
9722;SDS011;4900;49.306;8.500;2023-05-07T08:00:08;2.15;;;2.00;;
9722;SDS011;4900;49.306;8.500;2023-05-07T08:02:34;2.75;;;2.53;;
9722;SDS011;4900;49.306;8.500;2023-05-07T08:05:00;2.13;;;1.92;;
9722;SDS011;4900;49.306;8.500;2023-05-07T08:07:25;1.90;;;1.80;;
9722;SDS011;4900;49.306;8.500;2023-05-07T08:09:50;2.25;;;2.00;;
9722;SDS011;4900;49.306;8.500;2023-05-07T08:12:16;2.42;;;2.03;;
9722;SDS011;4900;49.306;8.500;2023-05-07T08:14:41;2.65;;;2.20;;
9722;SDS011;4900;49.306;8.500;2023-05-07T08:17:07;2.03;;;1.92;;
9722;SDS011;4900;49.306;8.500;2023-05-07T08:19:34;2.30;;;2.10;;
9722;SDS011;4900;49.306;8.500;2023-05-07T08:22:02;2.53;;;2.33;;
9722;SDS011;4900;49.306;8.500;2023-05-07T08:24:29;2.40;;;2.20;;
9722;SDS011;4900;49.306;8.500;2023-05-07T08:26:54;2.10;;;1.80;;
9722;SDS011;4900;49.306;8.500;2023-05-07T08:29:20;2.20;;;2.00;;
9722;SDS011;4900;49.306;8.500;2023-05-07T08:31:45;2.90;;;2.70;;
9722;SDS011;4900;49.306;8.500;2023-05-07T08:34:11;3.00;;;2.22;;
9722;SDS011;4900;49.306;8.500;2023-05-07T08:36:36;2.55;;;2.20;;
9722;SDS011;4900;49.306;8.500;2023-05-07T08:39:02;2.40;;;2.20;;
9722;SDS011;4900;49.306;8.500;2023-05-07T08:41:27;2.45;;;2.25;;
9722;SDS011;4900;49.306;8.500;2023-05-07T08:43:57;2.50;;;2.10;;
9722;SDS011;4900;49.306;8.500;2023-05-07T08:46:25;2.95;;;1.80;;
9722;SDS011;4900;49.306;8.500;2023-05-07T08:48:51;2.05;;;1.85;;
9722;SDS011;4900;49.306;8.500;2023-05-07T08:51:18;2.72;;;2.53;;
9722;SDS011;4900;49.306;8.500;2023-05-07T08:53:46;2.80;;;1.95;;
9722;SDS011;4900;49.306;8.500;2023-05-07T08:56:16;2.42;;;2.22;;
9722;SDS011;4900;49.306;8.500;2023-05-07T08:58:43;3.45;;;3.00;;
9722;SDS011;4900;49.306;8.500;2023-05-07T09:01:10;3.10;;;2.80;;
9722;SDS011;4900;49.306;8.500;2023-05-07T09:03:38;3.05;;;2.83;;
9722;SDS011;4900;49.306;8.500;2023-05-07T09:06:04;2.78;;;2.58;;
9722;SDS011;4900;49.306;8.500;2023-05-07T09:08:32;3.20;;;2.50;;
9722;SDS011;4900;49.306;8.500;2023-05-07T09:11:01;2.97;;;2.67;;
9722;SDS011;4900;49.306;8.500;2023-05-07T09:13:26;2.88;;;2.67;;
9722;SDS011;4900;49.306;8.500;2023-05-07T09:15:52;2.88;;;2.67;;
9722;SDS011;4900;49.306;8.500;2023-05-07T09:18:18;2.80;;;2.40;;
9722;SDS011;4900;49.306;8.500;2023-05-07T09:20:43;2.72;;;2.53;;
9722;SDS011;4900;49.306;8.500;2023-05-07T09:23:09;2.17;;;1.88;;
9722;SDS011;4900;49.306;8.500;2023-05-07T09:25:35;2.42;;;2.22;;
9722;SDS011;4900;49.306;8.500;2023-05-07T09:28:01;2.30;;;2.10;;
9722;SDS011;4900;49.306;8.500;2023-05-07T09:30:29;2.55;;;2.35;;
9722;SDS011;4900;49.306;8.500;2023-05-07T09:33:00;2.88;;;2.58;;
9722;SDS011;4900;49.306;8.500;2023-05-07T09:35:28;2.80;;;2.53;;
9722;SDS011;4900;49.306;8.500;2023-05-07T09:37:55;2.55;;;2.35;;
9722;SDS011;4900;49.306;8.500;2023-05-07T09:40:25;2.30;;;2.05;;
9722;SDS011;4900;49.306;8.500;2023-05-07T09:42:52;2.47;;;2.28;;
9722;SDS011;4900;49.306;8.500;2023-05-07T09:45:28;2.70;;;2.50;;
9722;SDS011;4900;49.306;8.500;2023-05-07T09:47:54;2.65;;;2.45;;
9722;SDS011;4900;49.306;8.500;2023-05-07T09:50:28;2.22;;;2.10;;
9722;SDS011;4900;49.306;8.500;2023-05-07T09:52:55;2.90;;;2.67;;
9722;SDS011;4900;49.306;8.500;2023-05-07T09:55:22;2.13;;;2.00;;
9722;SDS011;4900;49.306;8.500;2023-05-07T09:57:51;2.20;;;2.03;;
9722;SDS011;4900;49.306;8.500;2023-05-07T10:00:21;2.65;;;2.45;;
9722;SDS011;4900;49.306;8.500;2023-05-07T10:02:48;2.28;;;2.08;;
9722;SDS011;4900;49.306;8.500;2023-05-07T10:05:16;2.58;;;2.38;;
9722;SDS011;4900;49.306;8.500;2023-05-07T10:07:43;3.20;;;2.50;;
9722;SDS011;4900;49.306;8.500;2023-05-07T10:10:09;2.50;;;2.30;;
9722;SDS011;4900;49.306;8.500;2023-05-07T10:12:35;2.78;;;2.58;;
9722;SDS011;4900;49.306;8.500;2023-05-07T10:15:08;2.28;;;2.08;;
9722;SDS011;4900;49.306;8.500;2023-05-07T10:17:39;2.88;;;2.60;;
9722;SDS011;4900;49.306;8.500;2023-05-07T10:20:05;2.40;;;2.20;;
9722;SDS011;4900;49.306;8.500;2023-05-07T10:22:33;2.92;;;2.72;;
9722;SDS011;4900;49.306;8.500;2023-05-07T10:25:04;2.05;;;1.95;;
9722;SDS011;4900;49.306;8.500;2023-05-07T10:27:48;2.83;;;2.63;;
9722;SDS011;4900;49.306;8.500;2023-05-07T10:33:10;3.17;;;2.88;;
9722;SDS011;4900;49.306;8.500;2023-05-07T10:35:39;3.13;;;2.10;;
9722;SDS011;4900;49.306;8.500;2023-05-07T10:38:06;2.80;;;2.60;;
9722;SDS011;4900;49.306;8.500;2023-05-07T10:40:32;2.30;;;2.10;;
9722;SDS011;4900;49.306;8.500;2023-05-07T10:42:58;2.20;;;2.00;;
9722;SDS011;4900;49.306;8.500;2023-05-07T10:45:25;3.28;;;2.05;;
9722;SDS011;4900;49.306;8.500;2023-05-07T10:48:25;2.33;;;2.13;;
9722;SDS011;4900;49.306;8.500;2023-05-07T10:50:44;2.08;;;1.98;;
9722;SDS011;4900;49.306;8.500;2023-05-07T11:00:56;1.85;;;1.75;;
9722;SDS011;4900;49.306;8.500;2023-05-07T11:03:23;2.00;;;1.90;;
9722;SDS011;4900;49.306;8.500;2023-05-07T11:06:08;2.03;;;1.90;;
9722;SDS011;4900;49.306;8.500;2023-05-07T11:11:17;2.08;;;1.88;;
9722;SDS011;4900;49.306;8.500;2023-05-07T11:13:46;1.92;;;1.83;;
9722;SDS011;4900;49.306;8.500;2023-05-07T11:16:19;2.42;;;2.22;;
9722;SDS011;4900;49.306;8.500;2023-05-07T11:18:52;2.20;;;2.00;;
9722;SDS011;4900;49.306;8.500;2023-05-07T11:21:36;2.20;;;2.00;;
9722;SDS011;4900;49.306;8.500;2023-05-07T11:24:04;2.10;;;1.90;;
9722;SDS011;4900;49.306;8.500;2023-05-07T11:26:31;1.90;;;1.80;;
9722;SDS011;4900;49.306;8.500;2023-05-07T11:29:11;2.08;;;1.88;;
9722;SDS011;4900;49.306;8.500;2023-05-07T11:31:38;2.20;;;1.98;;
9722;SDS011;4900;49.306;8.500;2023-05-07T11:34:04;2.00;;;1.80;;
9722;SDS011;4900;49.306;8.500;2023-05-07T11:36:31;2.00;;;1.88;;
9722;SDS011;4900;49.306;8.500;2023-05-07T11:38:57;2.10;;;2.00;;
9722;SDS011;4900;49.306;8.500;2023-05-07T11:41:22;1.90;;;1.80;;
9722;SDS011;4900;49.306;8.500;2023-05-07T11:43:59;2.55;;;2.17;;
9722;SDS011;4900;49.306;8.500;2023-05-07T11:46:24;2.83;;;1.90;;
9722;SDS011;4900;49.306;8.500;2023-05-07T11:48:50;2.10;;;1.90;;
9722;SDS011;4900;49.306;8.500;2023-05-07T11:51:19;2.20;;;2.00;;
9722;SDS011;4900;49.306;8.500;2023-05-07T11:53:46;1.83;;;1.73;;
9722;SDS011;4900;49.306;8.500;2023-05-07T11:56:13;2.00;;;1.90;;
9722;SDS011;4900;49.306;8.500;2023-05-07T11:58:41;2.00;;;1.90;;
9722;SDS011;4900;49.306;8.500;2023-05-07T12:01:07;2.00;;;1.90;;
9722;SDS011;4900;49.306;8.500;2023-05-07T12:03:34;1.90;;;1.80;;
9722;SDS011;4900;49.306;8.500;2023-05-07T12:06:02;2.13;;;1.90;;
9722;SDS011;4900;49.306;8.500;2023-05-07T12:08:30;2.17;;;2.03;;
9722;SDS011;4900;49.306;8.500;2023-05-07T12:10:55;1.90;;;1.80;;
9722;SDS011;4900;49.306;8.500;2023-05-07T12:13:21;2.20;;;1.90;;
9722;SDS011;4900;49.306;8.500;2023-05-07T12:15:54;1.77;;;1.67;;
9722;SDS011;4900;49.306;8.500;2023-05-07T12:18:21;1.98;;;1.80;;
9722;SDS011;4900;49.306;8.500;2023-05-07T12:20:47;1.80;;;1.70;;
9722;SDS011;4900;49.306;8.500;2023-05-07T12:23:13;2.03;;;1.92;;
9722;SDS011;4900;49.306;8.500;2023-05-07T12:25:39;2.10;;;1.80;;
9722;SDS011;4900;49.306;8.500;2023-05-07T12:28:12;2.30;;;2.10;;
9722;SDS011;4900;49.306;8.500;2023-05-07T12:30:39;1.92;;;1.83;;
9722;SDS011;4900;49.306;8.500;2023-05-07T12:33:05;2.45;;;2.00;;
9722;SDS011;4900;49.306;8.500;2023-05-07T12:35:32;1.80;;;1.70;;
9722;SDS011;4900;49.306;8.500;2023-05-07T12:38:02;2.35;;;2.15;;
9722;SDS011;4900;49.306;8.500;2023-05-07T12:40:39;1.98;;;1.88;;
9722;SDS011;4900;49.306;8.500;2023-05-07T12:43:18;1.90;;;1.80;;
9722;SDS011;4900;49.306;8.500;2023-05-07T12:45:44;1.90;;;1.80;;
9722;SDS011;4900;49.306;8.500;2023-05-07T12:48:11;2.00;;;1.90;;
9722;SDS011;4900;49.306;8.500;2023-05-07T12:50:37;2.33;;;2.13;;
9722;SDS011;4900;49.306;8.500;2023-05-07T12:53:03;2.30;;;2.10;;
9722;SDS011;4900;49.306;8.500;2023-05-07T12:55:31;2.30;;;2.10;;
9722;SDS011;4900;49.306;8.500;2023-05-07T12:57:57;2.35;;;1.80;;
9722;SDS011;4900;49.306;8.500;2023-05-07T13:00:35;2.28;;;2.08;;
9722;SDS011;4900;49.306;8.500;2023-05-07T13:03:02;2.08;;;1.88;;
9722;SDS011;4900;49.306;8.500;2023-05-07T13:05:27;3.10;;;1.92;;
9722;SDS011;4900;49.306;8.500;2023-05-07T13:07:56;2.05;;;1.90;;
9722;SDS011;4900;49.306;8.500;2023-05-07T13:10:25;2.13;;;1.95;;
9722;SDS011;4900;49.306;8.500;2023-05-07T13:12:51;2.65;;;1.98;;
9722;SDS011;4900;49.306;8.500;2023-05-07T13:15:16;2.13;;;2.00;;
9722;SDS011;4900;49.306;8.500;2023-05-07T13:17:42;2.60;;;2.00;;
9722;SDS011;4900;49.306;8.500;2023-05-07T13:20:09;1.90;;;1.80;;
9722;SDS011;4900;49.306;8.500;2023-05-07T13:22:35;2.13;;;1.98;;
9722;SDS011;4900;49.306;8.500;2023-05-07T13:25:01;2.05;;;1.85;;
9722;SDS011;4900;49.306;8.500;2023-05-07T13:27:26;1.88;;;1.77;;
9722;SDS011;4900;49.306;8.500;2023-05-07T13:29:52;2.30;;;2.10;;
9722;SDS011;4900;49.306;8.500;2023-05-07T13:32:17;2.20;;;2.00;;
9722;SDS011;4900;49.306;8.500;2023-05-07T13:34:42;2.17;;;1.98;;
9722;SDS011;4900;49.306;8.500;2023-05-07T13:37:08;1.92;;;1.83;;
9722;SDS011;4900;49.306;8.500;2023-05-07T13:39:33;2.17;;;2.08;;
9722;SDS011;4900;49.306;8.500;2023-05-07T13:41:59;2.40;;;2.15;;
9722;SDS011;4900;49.306;8.500;2023-05-07T13:44:24;2.20;;;2.00;;
9722;SDS011;4900;49.306;8.500;2023-05-07T13:46:50;2.40;;;2.00;;
9722;SDS011;4900;49.306;8.500;2023-05-07T13:49:16;2.33;;;2.00;;
9722;SDS011;4900;49.306;8.500;2023-05-07T13:51:41;2.15;;;2.00;;
9722;SDS011;4900;49.306;8.500;2023-05-07T13:54:07;2.10;;;1.90;;
9722;SDS011;4900;49.306;8.500;2023-05-07T13:56:32;2.00;;;1.90;;
9722;SDS011;4900;49.306;8.500;2023-05-07T13:58:58;2.30;;;2.10;;
9722;SDS011;4900;49.306;8.500;2023-05-07T14:01:23;2.05;;;1.92;;
9722;SDS011;4900;49.306;8.500;2023-05-07T14:03:50;1.85;;;1.75;;
9722;SDS011;4900;49.306;8.500;2023-05-07T14:06:15;2.38;;;2.17;;
9722;SDS011;4900;49.306;8.500;2023-05-07T14:08:41;2.22;;;2.03;;
9722;SDS011;4900;49.306;8.500;2023-05-07T14:11:08;2.63;;;2.42;;
9722;SDS011;4900;49.306;8.500;2023-05-07T14:13:33;2.25;;;2.05;;
9722;SDS011;4900;49.306;8.500;2023-05-07T14:15:59;2.70;;;2.40;;
9722;SDS011;4900;49.306;8.500;2023-05-07T14:18:25;2.83;;;2.50;;
9722;SDS011;4900;49.306;8.500;2023-05-07T14:20:51;2.42;;;2.22;;
9722;SDS011;4900;49.306;8.500;2023-05-07T14:23:17;2.38;;;2.00;;
9722;SDS011;4900;49.306;8.500;2023-05-07T14:25:44;2.60;;;2.00;;
9722;SDS011;4900;49.306;8.500;2023-05-07T14:28:11;2.13;;;1.83;;
9722;SDS011;4900;49.306;8.500;2023-05-07T14:30:36;2.45;;;1.80;;
9722;SDS011;4900;49.306;8.500;2023-05-07T14:33:01;3.92;;;2.58;;
9722;SDS011;4900;49.306;8.500;2023-05-07T14:35:27;2.88;;;2.17;;
9722;SDS011;4900;49.306;8.500;2023-05-07T14:37:52;3.10;;;2.55;;
9722;SDS011;4900;49.306;8.500;2023-05-07T14:40:18;4.40;;;2.10;;
9722;SDS011;4900;49.306;8.500;2023-05-07T14:42:43;5.50;;;2.60;;
9722;SDS011;4900;49.306;8.500;2023-05-07T14:45:09;4.45;;;2.90;;
9722;SDS011;4900;49.306;8.500;2023-05-07T14:47:35;5.05;;;2.25;;
9722;SDS011;4900;49.306;8.500;2023-05-07T14:50:00;3.60;;;2.20;;
9722;SDS011;4900;49.306;8.500;2023-05-07T14:52:26;1.98;;;1.63;;
9722;SDS011;4900;49.306;8.500;2023-05-07T14:54:51;2.78;;;2.08;;
9722;SDS011;4900;49.306;8.500;2023-05-07T14:57:17;2.05;;;1.60;;
9722;SDS011;4900;49.306;8.500;2023-05-07T14:59:43;1.92;;;1.70;;
9722;SDS011;4900;49.306;8.500;2023-05-07T15:02:09;2.38;;;1.73;;
9722;SDS011;4900;49.306;8.500;2023-05-07T15:04:36;3.75;;;2.22;;
9722;SDS011;4900;49.306;8.500;2023-05-07T15:07:03;3.65;;;2.30;;
9722;SDS011;4900;49.306;8.500;2023-05-07T15:09:28;2.63;;;1.88;;
9722;SDS011;4900;49.306;8.500;2023-05-07T15:11:54;2.45;;;1.67;;
9722;SDS011;4900;49.306;8.500;2023-05-07T15:14:20;2.95;;;1.80;;
9722;SDS011;4900;49.306;8.500;2023-05-07T15:16:46;2.83;;;1.75;;
9722;SDS011;4900;49.306;8.500;2023-05-07T15:19:13;2.50;;;1.65;;
9722;SDS011;4900;49.306;8.500;2023-05-07T15:21:40;2.30;;;1.73;;
9722;SDS011;4900;49.306;8.500;2023-05-07T15:24:05;2.42;;;1.70;;